createdAt,value
2019-02-26T00:00:33.164Z,1032.20
2019-02-26T00:01:37.436Z,1032.18
2019-02-26T00:02:41.630Z,1032.20
2019-02-26T00:03:45.885Z,1032.20
2019-02-26T00:04:51.682Z,1032.19
2019-02-26T00:05:56.668Z,1032.18
2019-02-26T00:07:00.327Z,1032.16
2019-02-26T00:08:02.787Z,1032.16
2019-02-26T00:09:06.846Z,1032.17
2019-02-26T00:10:11.044Z,1032.15
2019-02-26T00:11:15.244Z,1032.19
2019-02-26T00:12:21.918Z,1032.19
2019-02-26T00:13:25.074Z,1032.17
2019-02-26T00:14:30.234Z,1032.18
2019-02-26T00:15:35.562Z,1032.18
2019-02-26T00:16:39.760Z,1032.19
2019-02-26T00:17:42.956Z,1032.22
2019-02-26T00:18:44.718Z,1032.22
2019-02-26T00:19:48.924Z,1032.22
2019-02-26T00:20:54.141Z,1032.21
2019-02-26T00:21:57.392Z,1032.21
2019-02-26T00:23:02.731Z,1032.21
2019-02-26T00:24:07.329Z,1032.22
2019-02-26T00:25:10.909Z,1032.22
2019-02-26T00:26:15.596Z,1032.17
2019-02-26T00:27:18.302Z,1032.17
2019-02-26T00:28:22.570Z,1032.18
2019-02-26T00:29:28.103Z,1032.16
2019-02-26T00:30:31.630Z,1032.15
2019-02-26T00:31:35.180Z,1032.13
2019-02-26T00:32:40.498Z,1032.11
2019-02-26T00:33:43.547Z,1032.11
2019-02-26T00:34:47.788Z,1032.11
2019-02-26T00:35:52.025Z,1032.13
2019-02-26T00:36:57.269Z,1032.10
2019-02-26T00:38:00.540Z,1032.08
2019-02-26T00:39:05.493Z,1032.08
2019-02-26T00:40:10.062Z,1032.08
2019-02-26T00:41:13.206Z,1032.06
2019-02-26T00:42:19.509Z,1032.06
2019-02-26T00:43:25.403Z,1032.02
2019-02-26T00:44:27.525Z,1032.02
2019-02-26T00:45:31.751Z,1032.04
2019-02-26T00:46:34.748Z,1032.02
2019-02-26T00:47:38.803Z,1031.99
2019-02-26T00:48:43.155Z,1031.92
2019-02-26T00:49:48.566Z,1031.90
2019-02-26T00:50:52.269Z,1031.89
2019-02-26T00:51:55.196Z,1031.86
2019-02-26T00:53:01.606Z,1031.86
2019-02-26T00:54:04.110Z,1031.86
2019-02-26T00:55:09.452Z,1031.83
2019-02-26T00:56:11.979Z,1031.83
2019-02-26T00:57:16.258Z,1031.84
2019-02-26T00:58:20.482Z,1031.84
2019-02-26T00:59:24.706Z,1031.85
2019-02-26T01:00:30.784Z,1031.85
2019-02-26T01:01:33.164Z,1031.83
2019-02-26T01:02:37.410Z,1031.81
2019-02-26T01:03:43.096Z,1031.84
2019-02-26T01:04:46.742Z,1031.84
2019-02-26T01:05:50.013Z,1031.87
2019-02-26T01:06:54.285Z,1031.98
2019-02-26T01:07:58.517Z,1032.03
2019-02-26T01:09:05.489Z,1032.04
2019-02-26T01:10:06.837Z,1032.01
2019-02-26T01:11:11.106Z,1032.00
2019-02-26T01:12:16.615Z,1031.99
2019-02-26T01:13:20.206Z,1031.97
2019-02-26T01:14:24.706Z,1031.97
2019-02-26T01:15:27.958Z,1031.94
2019-02-26T01:16:32.167Z,1031.93
2019-02-26T01:17:38.369Z,1031.93
2019-02-26T01:18:42.056Z,1031.91
2019-02-26T01:19:44.748Z,1031.89
2019-02-26T01:20:50.687Z,1031.88
2019-02-26T01:21:53.169Z,1031.86
2019-02-26T01:22:57.390Z,1031.81
2019-02-26T01:24:02.382Z,1031.82
2019-02-26T01:25:05.753Z,1031.83
2019-02-26T01:26:11.863Z,1031.84
2019-02-26T01:27:14.159Z,1031.84
2019-02-26T01:28:20.296Z,1031.86
2019-02-26T01:29:23.050Z,1031.84
2019-02-26T01:30:28.889Z,1031.82
2019-02-26T01:31:32.085Z,1031.77
2019-02-26T01:32:35.273Z,1031.76
2019-02-26T01:33:39.418Z,1031.79
2019-02-26T01:34:45.000Z,1031.80
2019-02-26T01:35:47.832Z,1031.82
2019-02-26T01:36:52.026Z,1031.82
2019-02-26T01:37:58.111Z,1031.86
2019-02-26T01:39:00.512Z,1031.83
2019-02-26T01:40:07.328Z,1031.84
2019-02-26T01:41:11.346Z,1031.88
2019-02-26T01:42:13.420Z,1031.87
2019-02-26T01:43:17.342Z,1031.90
2019-02-26T01:44:21.532Z,1031.88
2019-02-26T01:45:27.128Z,1031.91
2019-02-26T01:46:32.121Z,1031.96
2019-02-26T01:47:34.233Z,1032.03
2019-02-26T01:48:39.545Z,1032.04
2019-02-26T01:49:44.173Z,1032.01
2019-02-26T01:50:46.827Z,1032.01
2019-02-26T01:51:51.787Z,1031.99
2019-02-26T01:52:56.803Z,1032.03
2019-02-26T01:54:02.420Z,1032.05
2019-02-26T01:55:05.698Z,1032.08
2019-02-26T01:56:09.873Z,1032.07
2019-02-26T01:57:14.062Z,1032.08
2019-02-26T01:58:18.290Z,1032.04
2019-02-26T01:59:22.474Z,1032.02
2019-02-26T02:00:26.679Z,1032.06
2019-02-26T02:01:30.882Z,1032.09
2019-02-26T02:02:35.070Z,1032.12
2019-02-26T02:03:39.310Z,1032.10
2019-02-26T02:04:43.556Z,1032.07
2019-02-26T02:05:48.534Z,1032.10
2019-02-26T02:06:51.894Z,1032.11
2019-02-26T02:07:56.139Z,1032.07
2019-02-26T02:09:00.207Z,1032.10
2019-02-26T02:10:04.495Z,1032.10
2019-02-26T02:11:09.350Z,1032.12
2019-02-26T02:12:12.879Z,1032.10
2019-02-26T02:13:17.124Z,1032.11
2019-02-26T02:14:21.349Z,1032.05
2019-02-26T02:15:25.457Z,1032.00
2019-02-26T02:16:31.463Z,1031.94
2019-02-26T02:17:35.548Z,1031.90
2019-02-26T02:18:38.174Z,1031.97
2019-02-26T02:19:42.415Z,1032.06
2019-02-26T02:20:46.631Z,1032.11
2019-02-26T02:21:51.519Z,1032.15
2019-02-26T02:22:55.953Z,1032.15
2019-02-26T02:23:59.195Z,1032.08
2019-02-26T02:25:03.403Z,1032.05
2019-02-26T02:26:09.368Z,1032.02
2019-02-26T02:27:15.001Z,1031.94
2019-02-26T02:28:16.679Z,1031.94
2019-02-26T02:29:21.661Z,1031.99
2019-02-26T02:30:30.252Z,1032.05
2019-02-26T02:31:31.397Z,1032.04
2019-02-26T02:32:34.474Z,1032.01
2019-02-26T02:33:37.612Z,1032.01
2019-02-26T02:34:43.064Z,1032.04
2019-02-26T02:35:45.296Z,1032.04
2019-02-26T02:36:49.566Z,1032.00
2019-02-26T02:37:56.259Z,1032.00
2019-02-26T02:38:57.933Z,1032.03
2019-02-26T02:40:02.172Z,1031.95
2019-02-26T02:41:06.367Z,1031.88
2019-02-26T02:42:11.618Z,1031.85
2019-02-26T02:43:16.164Z,1031.87
2019-02-26T02:44:20.578Z,1031.86
2019-02-26T02:45:23.207Z,1031.82
2019-02-26T02:46:27.460Z,1031.82
2019-02-26T02:47:35.736Z,1031.83
2019-02-26T02:48:35.863Z,1031.78
2019-02-26T02:49:42.478Z,1031.76
2019-02-26T02:50:44.243Z,1031.74
2019-02-26T02:51:48.404Z,1031.78
2019-02-26T02:52:53.502Z,1031.82
2019-02-26T02:53:59.237Z,1031.87
2019-02-26T02:55:01.118Z,1031.83
2019-02-26T02:56:06.369Z,1031.82
2019-02-26T02:57:10.072Z,1031.85
2019-02-26T02:58:15.898Z,1031.86
2019-02-26T02:59:17.972Z,1031.86
2019-02-26T03:00:23.895Z,1031.83
2019-02-26T03:01:28.675Z,1031.82
2019-02-26T03:02:30.639Z,1031.80
2019-02-26T03:03:34.834Z,1031.81
2019-02-26T03:04:39.060Z,1031.87
2019-02-26T03:05:43.961Z,1031.92
2019-02-26T03:06:52.830Z,1031.95
2019-02-26T03:07:56.202Z,1031.98
2019-02-26T03:08:57.943Z,1031.99
2019-02-26T03:10:06.127Z,1031.97
2019-02-26T03:11:06.380Z,1031.95
2019-02-26T03:12:10.585Z,1031.92
2019-02-26T03:13:16.775Z,1031.90
2019-02-26T03:14:19.052Z,1031.89
2019-02-26T03:15:24.541Z,1031.86
2019-02-26T03:16:27.434Z,1031.85
2019-02-26T03:17:31.672Z,1031.83
2019-02-26T03:18:35.863Z,1031.77
2019-02-26T03:19:41.579Z,1031.73
2019-02-26T03:20:44.310Z,1031.73
2019-02-26T03:21:49.717Z,1031.77
2019-02-26T03:22:52.753Z,1031.79
2019-02-26T03:23:57.812Z,1031.79
2019-02-26T03:25:04.202Z,1031.81
2019-02-26T03:26:09.960Z,1031.82
2019-02-26T03:27:11.656Z,1031.78
2019-02-26T03:28:15.868Z,1031.73
2019-02-26T03:29:20.083Z,1031.76
2019-02-26T03:30:31.834Z,1031.77
2019-02-26T03:31:31.055Z,1031.74
2019-02-26T03:32:36.068Z,1031.71
2019-02-26T03:33:36.763Z,1031.71
2019-02-26T03:34:41.111Z,1031.70
2019-02-26T03:35:45.301Z,1031.70
2019-02-26T03:36:49.472Z,1031.66
2019-02-26T03:37:55.544Z,1031.67
2019-02-26T03:39:00.756Z,1031.67
2019-02-26T03:40:03.661Z,1031.67
2019-02-26T03:41:06.311Z,1031.68
2019-02-26T03:42:13.282Z,1031.68
2019-02-26T03:43:16.228Z,1031.70
2019-02-26T03:44:18.932Z,1031.75
2019-02-26T03:45:24.737Z,1031.77
2019-02-26T03:46:27.344Z,1031.79
2019-02-26T03:47:31.553Z,1031.76
2019-02-26T03:48:35.743Z,1031.69
2019-02-26T03:49:42.227Z,1031.64
2019-02-26T03:50:44.703Z,1031.65
2019-02-26T03:51:48.325Z,1031.65
2019-02-26T03:52:52.647Z,1031.69
2019-02-26T03:53:56.803Z,1031.73
2019-02-26T03:55:03.443Z,1031.76
2019-02-26T03:56:08.028Z,1031.76
2019-02-26T03:57:11.398Z,1031.73
2019-02-26T03:58:13.649Z,1031.69
2019-02-26T03:59:17.849Z,1031.67
2019-02-26T04:00:22.180Z,1031.70
2019-02-26T04:01:26.316Z,1031.77
2019-02-26T04:02:30.531Z,1031.84
2019-02-26T04:03:36.856Z,1031.88
2019-02-26T04:04:38.870Z,1031.84
2019-02-26T04:05:43.088Z,1031.79
2019-02-26T04:06:47.274Z,1031.76
2019-02-26T04:07:54.361Z,1031.73
2019-02-26T04:08:56.023Z,1031.76
2019-02-26T04:09:59.910Z,1031.78
2019-02-26T04:11:04.133Z,1031.80
2019-02-26T04:12:10.366Z,1031.79
2019-02-26T04:13:12.559Z,1031.74
2019-02-26T04:14:18.125Z,1031.74
2019-02-26T04:15:24.334Z,1031.73
2019-02-26T04:16:25.230Z,1031.74
2019-02-26T04:17:30.765Z,1031.79
2019-02-26T04:18:34.725Z,1031.79
2019-02-26T04:19:37.868Z,1031.78
2019-02-26T04:20:44.340Z,1031.78
2019-02-26T04:21:46.213Z,1031.83
2019-02-26T04:22:53.285Z,1031.86
2019-02-26T04:23:54.733Z,1031.86
2019-02-26T04:25:01.458Z,1031.81
2019-02-26T04:26:03.131Z,1031.80
2019-02-26T04:27:07.322Z,1031.81
2019-02-26T04:28:11.522Z,1031.84
2019-02-26T04:29:15.741Z,1031.85
2019-02-26T04:30:19.972Z,1031.80
2019-02-26T04:31:24.187Z,1031.73
2019-02-26T04:32:28.376Z,1031.69
2019-02-26T04:33:33.419Z,1031.71
2019-02-26T04:34:36.851Z,1031.70
2019-02-26T04:35:42.332Z,1031.72
2019-02-26T04:36:47.136Z,1031.69
2019-02-26T04:37:49.461Z,1031.67
2019-02-26T04:38:55.598Z,1031.65
2019-02-26T04:39:59.115Z,1031.65
2019-02-26T04:41:03.035Z,1031.57
2019-02-26T04:42:08.693Z,1031.49
2019-02-26T04:43:12.829Z,1031.43
2019-02-26T04:44:14.630Z,1031.43
2019-02-26T04:45:18.786Z,1031.48
2019-02-26T04:46:25.277Z,1031.51
2019-02-26T04:47:29.804Z,1031.51
2019-02-26T04:48:32.525Z,1031.52
2019-02-26T04:49:38.963Z,1031.51
2019-02-26T04:50:41.566Z,1031.47
2019-02-26T04:51:45.036Z,1031.47
2019-02-26T04:52:48.314Z,1031.51
2019-02-26T04:53:54.153Z,1031.54
2019-02-26T04:54:56.713Z,1031.54
2019-02-26T04:56:02.982Z,1031.57
2019-02-26T04:57:05.214Z,1031.56
2019-02-26T04:58:12.217Z,1031.58
2019-02-26T04:59:14.488Z,1031.58
2019-02-26T05:00:16.694Z,1031.58
2019-02-26T05:01:20.879Z,1031.57
2019-02-26T05:02:25.107Z,1031.55
2019-02-26T05:03:29.324Z,1031.51
2019-02-26T05:04:36.533Z,1031.49
2019-02-26T05:05:37.749Z,1031.48
2019-02-26T05:06:41.947Z,1031.48
2019-02-26T05:07:47.075Z,1031.49
2019-02-26T05:08:50.434Z,1031.45
2019-02-26T05:09:56.901Z,1031.41
2019-02-26T05:11:00.011Z,1031.43
2019-02-26T05:12:02.930Z,1031.47
2019-02-26T05:13:09.532Z,1031.55
2019-02-26T05:14:12.257Z,1031.58
2019-02-26T05:15:19.820Z,1031.59
2019-02-26T05:16:19.765Z,1031.59
2019-02-26T05:17:26.976Z,1031.60
2019-02-26T05:18:29.251Z,1031.59
2019-02-26T05:19:32.297Z,1031.60
2019-02-26T05:20:38.855Z,1031.59
2019-02-26T05:21:40.693Z,1031.57
2019-02-26T05:22:45.026Z,1031.56
2019-02-26T05:23:49.574Z,1031.56
2019-02-26T05:24:53.376Z,1031.56
2019-02-26T05:26:02.940Z,1031.61
2019-02-26T05:27:01.930Z,1031.61
2019-02-26T05:28:07.220Z,1031.58
2019-02-26T05:29:10.274Z,1031.54
2019-02-26T05:30:17.232Z,1031.59
2019-02-26T05:31:18.649Z,1031.61
2019-02-26T05:32:26.539Z,1031.59
2019-02-26T05:33:28.526Z,1031.56
2019-02-26T05:34:31.285Z,1031.56
2019-02-26T05:35:37.345Z,1031.58
2019-02-26T05:36:42.903Z,1031.58
2019-02-26T05:37:43.916Z,1031.63
2019-02-26T05:38:49.316Z,1031.65
2019-02-26T05:39:54.609Z,1031.68
2019-02-26T05:40:56.472Z,1031.69
2019-02-26T05:42:01.321Z,1031.77
2019-02-26T05:43:06.706Z,1031.77
2019-02-26T05:44:10.731Z,1031.75
2019-02-26T05:45:13.673Z,1031.78
2019-02-26T05:46:19.563Z,1031.78
2019-02-26T05:47:24.031Z,1031.79
2019-02-26T05:48:26.362Z,1031.74
2019-02-26T05:49:33.824Z,1031.65
2019-02-26T05:50:36.248Z,1031.58
2019-02-26T05:51:38.971Z,1031.57
2019-02-26T05:52:43.083Z,1031.54
2019-02-26T05:53:47.315Z,1031.54
2019-02-26T05:54:52.679Z,1031.53
2019-02-26T05:55:56.066Z,1031.50
2019-02-26T05:57:01.822Z,1031.52
2019-02-26T05:58:04.410Z,1031.48
2019-02-26T05:59:09.522Z,1031.41
2019-02-26T06:00:14.546Z,1031.40
2019-02-26T06:01:19.251Z,1031.41
2019-02-26T06:02:22.279Z,1031.37
2019-02-26T06:03:25.345Z,1031.37
2019-02-26T06:04:31.705Z,1031.39
2019-02-26T06:05:33.651Z,1031.42
2019-02-26T06:06:37.895Z,1031.38
2019-02-26T06:07:42.115Z,1031.36
2019-02-26T06:08:46.219Z,1031.35
2019-02-26T06:09:51.726Z,1031.38
2019-02-26T06:10:54.705Z,1031.41
2019-02-26T06:11:58.996Z,1031.43
2019-02-26T06:13:05.023Z,1031.47
2019-02-26T06:14:09.793Z,1031.50
2019-02-26T06:15:11.430Z,1031.52
2019-02-26T06:16:15.662Z,1031.50
2019-02-26T06:17:19.880Z,1031.50
2019-02-26T06:18:24.065Z,1031.50
2019-02-26T06:19:30.113Z,1031.50
2019-02-26T06:20:36.097Z,1031.50
2019-02-26T06:21:39.604Z,1031.52
2019-02-26T06:22:40.840Z,1031.50
2019-02-26T06:23:44.938Z,1031.48
2019-02-26T06:24:49.202Z,1031.41
2019-02-26T06:25:55.459Z,1031.36
2019-02-26T06:27:00.514Z,1031.38
2019-02-26T06:28:06.875Z,1031.43
2019-02-26T06:29:08.002Z,1031.47
2019-02-26T06:30:12.542Z,1031.51
2019-02-26T06:31:17.426Z,1031.51
2019-02-26T06:32:20.606Z,1031.51
2019-02-26T06:33:24.733Z,1031.46
2019-02-26T06:34:29.016Z,1031.48
2019-02-26T06:35:33.668Z,1031.49
2019-02-26T06:36:37.351Z,1031.48
2019-02-26T06:37:41.613Z,1031.47
2019-02-26T06:38:49.327Z,1031.45
2019-02-26T06:39:52.637Z,1031.44
2019-02-26T06:40:54.301Z,1031.41
2019-02-26T06:41:58.452Z,1031.38
2019-02-26T06:43:02.491Z,1031.39
2019-02-26T06:44:06.909Z,1031.38
2019-02-26T06:45:13.248Z,1031.42
2019-02-26T06:46:15.361Z,1031.43
2019-02-26T06:47:21.131Z,1031.40
2019-02-26T06:48:25.025Z,1031.39
2019-02-26T06:49:29.101Z,1031.32
2019-02-26T06:50:33.909Z,1031.29
2019-02-26T06:51:36.483Z,1031.28
2019-02-26T06:52:43.039Z,1031.28
2019-02-26T06:53:48.988Z,1031.29
2019-02-26T06:54:54.215Z,1031.31
2019-02-26T06:55:53.512Z,1031.33
2019-02-26T06:56:57.773Z,1031.35
2019-02-26T06:58:01.953Z,1031.37
2019-02-26T06:59:07.467Z,1031.38
2019-02-26T07:00:10.226Z,1031.38
2019-02-26T07:01:16.529Z,1031.36
2019-02-26T07:02:18.746Z,1031.38
2019-02-26T07:03:24.797Z,1031.41
2019-02-26T07:04:30.114Z,1031.43
2019-02-26T07:05:31.245Z,1031.45
2019-02-26T07:06:35.489Z,1031.42
2019-02-26T07:07:39.791Z,1031.41
2019-02-26T07:08:45.036Z,1031.47
2019-02-26T07:09:48.157Z,1031.51
2019-02-26T07:10:52.414Z,1031.59
2019-02-26T07:11:56.604Z,1031.59
2019-02-26T07:13:02.131Z,1031.63
2019-02-26T07:14:05.561Z,1031.61
2019-02-26T07:15:11.705Z,1031.63
2019-02-26T07:16:13.375Z,1031.64
2019-02-26T07:17:19.501Z,1031.63
2019-02-26T07:18:21.867Z,1031.62
2019-02-26T07:19:27.936Z,1031.59
2019-02-26T07:20:34.085Z,1031.58
2019-02-26T07:21:34.478Z,1031.59
2019-02-26T07:22:39.827Z,1031.58
2019-02-26T07:23:42.971Z,1031.55
2019-02-26T07:24:49.531Z,1031.56
2019-02-26T07:25:51.371Z,1031.58
2019-02-26T07:26:55.591Z,1031.58
2019-02-26T07:28:01.087Z,1031.54
2019-02-26T07:29:05.846Z,1031.49
2019-02-26T07:30:08.274Z,1031.43
2019-02-26T07:31:12.469Z,1031.42
2019-02-26T07:32:17.927Z,1031.44
2019-02-26T07:33:20.985Z,1031.48
2019-02-26T07:34:27.348Z,1031.50
2019-02-26T07:35:30.661Z,1031.52
2019-02-26T07:36:34.095Z,1031.56
2019-02-26T07:37:40.278Z,1031.57
2019-02-26T07:38:46.047Z,1031.58
2019-02-26T07:39:47.350Z,1031.58
2019-02-26T07:40:50.897Z,1031.57
2019-02-26T07:41:55.116Z,1031.60
2019-02-26T07:42:59.328Z,1031.61
2019-02-26T07:44:03.371Z,1031.60
2019-02-26T07:45:14.580Z,1031.58
2019-02-26T07:46:12.662Z,1031.56
2019-02-26T07:47:16.135Z,1031.58
2019-02-26T07:48:21.271Z,1031.60
2019-02-26T07:49:24.688Z,1031.60
2019-02-26T07:50:31.478Z,1031.58
2019-02-26T07:51:33.823Z,1031.53
2019-02-26T07:52:37.135Z,1031.45
2019-02-26T07:53:44.120Z,1031.36
2019-02-26T07:54:47.598Z,1031.33
2019-02-26T07:55:49.983Z,1031.27
2019-02-26T07:56:55.151Z,1031.26
2019-02-26T07:57:58.434Z,1031.28
2019-02-26T07:59:06.799Z,1031.26
2019-02-26T08:00:07.000Z,1031.25
2019-02-26T08:01:11.157Z,1031.24
2019-02-26T08:02:15.381Z,1031.31
2019-02-26T08:03:24.788Z,1031.39
2019-02-26T08:04:25.858Z,1031.43
2019-02-26T08:05:30.157Z,1031.50
2019-02-26T08:06:36.184Z,1031.49
2019-02-26T08:07:38.469Z,1031.50
2019-02-26T08:08:44.888Z,1031.54
2019-02-26T08:09:47.014Z,1031.60
2019-02-26T08:10:53.128Z,1031.59
2019-02-26T08:11:55.502Z,1031.58
2019-02-26T08:13:01.553Z,1031.56
2019-02-26T08:14:03.877Z,1031.55
2019-02-26T08:15:10.386Z,1031.55
2019-02-26T08:16:12.276Z,1031.56
2019-02-26T08:17:16.547Z,1031.60
2019-02-26T08:18:20.788Z,1031.64
2019-02-26T08:19:29.672Z,1031.71
2019-02-26T08:20:30.498Z,1031.76
2019-02-26T08:21:33.443Z,1031.77
2019-02-26T08:22:37.675Z,1031.76
2019-02-26T08:23:43.652Z,1031.77
2019-02-26T08:24:47.791Z,1031.77
2019-02-26T08:25:52.286Z,1031.77
2019-02-26T08:26:54.508Z,1031.75
2019-02-26T08:28:01.000Z,1031.73
2019-02-26T08:29:05.094Z,1031.70
2019-02-26T08:30:07.039Z,1031.70
2019-02-26T08:31:15.449Z,1031.71
2019-02-26T08:32:18.108Z,1031.72
2019-02-26T08:33:19.720Z,1031.72
2019-02-26T08:34:23.967Z,1031.73
2019-02-26T08:35:28.146Z,1031.72
2019-02-26T08:36:32.399Z,1031.70
2019-02-26T08:37:36.669Z,1031.69
2019-02-26T08:38:41.017Z,1031.71
2019-02-26T08:39:45.145Z,1031.68
2019-02-26T08:40:49.466Z,1031.66
2019-02-26T08:41:53.532Z,1031.66
2019-02-26T08:42:57.707Z,1031.65
2019-02-26T08:44:01.964Z,1031.64
2019-02-26T08:45:06.326Z,1031.60
2019-02-26T08:46:12.165Z,1031.63
2019-02-26T08:47:16.723Z,1031.60
2019-02-26T08:48:20.408Z,1031.56
2019-02-26T08:49:23.268Z,1031.55
2019-02-26T08:50:30.716Z,1031.53
2019-02-26T08:51:31.625Z,1031.55
2019-02-26T08:52:35.906Z,1031.54
2019-02-26T08:53:40.053Z,1031.55
2019-02-26T08:54:44.326Z,1031.55
2019-02-26T08:55:48.585Z,1031.57
2019-02-26T08:56:52.724Z,1031.61
2019-02-26T08:57:57.000Z,1031.63
2019-02-26T08:59:03.503Z,1031.67
2019-02-26T09:00:05.514Z,1031.65
2019-02-26T09:01:09.805Z,1031.68
2019-02-26T09:02:14.025Z,1031.67
2019-02-26T09:03:20.386Z,1031.64
2019-02-26T09:04:23.891Z,1031.63
2019-02-26T09:05:29.231Z,1031.63
2019-02-26T09:06:30.994Z,1031.63
2019-02-26T09:07:35.290Z,1031.65
2019-02-26T09:08:40.605Z,1031.68
2019-02-26T09:09:45.131Z,1031.67
2019-02-26T09:10:48.651Z,1031.65
2019-02-26T09:11:52.976Z,1031.62
2019-02-26T09:12:56.374Z,1031.65
2019-02-26T09:14:03.916Z,1031.68
2019-02-26T09:15:04.769Z,1031.69
2019-02-26T09:16:08.972Z,1031.71
2019-02-26T09:17:13.256Z,1031.67
2019-02-26T09:18:20.255Z,1031.66
2019-02-26T09:19:22.635Z,1031.68
2019-02-26T09:20:26.054Z,1031.71
2019-02-26T09:21:30.328Z,1031.73
2019-02-26T09:22:34.670Z,1031.72
2019-02-26T09:23:38.800Z,1031.73
2019-02-26T09:24:42.953Z,1031.72
2019-02-26T09:25:51.527Z,1031.66
2019-02-26T09:26:54.846Z,1031.63
2019-02-26T09:27:57.685Z,1031.59
2019-02-26T09:29:02.056Z,1031.59
2019-02-26T09:30:08.478Z,1031.61
2019-02-26T09:31:12.315Z,1031.63
2019-02-26T09:32:16.537Z,1031.64
2019-02-26T09:33:18.835Z,1031.67
2019-02-26T09:34:26.031Z,1031.68
2019-02-26T09:35:30.228Z,1031.70
2019-02-26T09:36:31.652Z,1031.70
2019-02-26T09:37:35.746Z,1031.73
2019-02-26T09:38:41.765Z,1031.71
2019-02-26T09:39:44.306Z,1031.72
2019-02-26T09:40:50.105Z,1031.74
2019-02-26T09:41:52.841Z,1031.79
2019-02-26T09:42:59.921Z,1031.82
2019-02-26T09:44:03.856Z,1031.82
2019-02-26T09:45:05.673Z,1031.82
2019-02-26T09:46:14.405Z,1031.82
2019-02-26T09:47:14.267Z,1031.85
2019-02-26T09:48:19.411Z,1031.90
2019-02-26T09:49:24.589Z,1031.93
2019-02-26T09:50:27.125Z,1031.96
2019-02-26T09:51:33.076Z,1031.93
2019-02-26T09:52:35.675Z,1031.91
2019-02-26T09:53:39.871Z,1031.90
2019-02-26T09:54:46.387Z,1031.87
2019-02-26T09:55:48.443Z,1031.85
2019-02-26T09:56:52.728Z,1031.84
2019-02-26T09:57:57.081Z,1031.87
2019-02-26T09:59:02.471Z,1031.91
2019-02-26T10:00:05.554Z,1031.96
2019-02-26T10:01:11.082Z,1031.99
2019-02-26T10:02:14.231Z,1032.02
2019-02-26T10:03:18.407Z,1032.06
2019-02-26T10:04:24.298Z,1032.08
2019-02-26T10:05:27.075Z,1032.06
2019-02-26T10:06:31.316Z,1032.05
2019-02-26T10:07:36.967Z,1032.00
2019-02-26T10:08:39.964Z,1031.98
2019-02-26T10:09:46.584Z,1031.93
2019-02-26T10:10:48.527Z,1031.94
2019-02-26T10:11:52.785Z,1031.97
2019-02-26T10:12:59.455Z,1031.99
2019-02-26T10:14:02.898Z,1032.00
2019-02-26T10:15:05.522Z,1032.03
2019-02-26T10:16:09.784Z,1032.04
2019-02-26T10:17:14.596Z,1032.04
2019-02-26T10:18:18.319Z,1032.03
2019-02-26T10:19:22.547Z,1032.03
2019-02-26T10:20:29.454Z,1032.01
2019-02-26T10:21:33.079Z,1031.97
2019-02-26T10:22:36.191Z,1031.96
2019-02-26T10:23:39.502Z,1031.95
2019-02-26T10:24:43.885Z,1031.96
2019-02-26T10:25:53.183Z,1032.00
2019-02-26T10:26:52.309Z,1032.01
2019-02-26T10:27:56.633Z,1032.02
2019-02-26T10:29:04.421Z,1032.00
2019-02-26T10:30:07.863Z,1032.01
2019-02-26T10:31:09.806Z,1031.99
2019-02-26T10:32:13.648Z,1031.99
2019-02-26T10:33:20.292Z,1032.03
2019-02-26T10:34:25.897Z,1032.09
2019-02-26T10:35:33.206Z,1032.13
2019-02-26T10:36:34.680Z,1032.17
2019-02-26T10:37:36.943Z,1032.22
2019-02-26T10:38:39.400Z,1032.20
2019-02-26T10:39:44.579Z,1032.20
2019-02-26T10:40:53.949Z,1032.20
2019-02-26T10:41:52.253Z,1032.21
2019-02-26T10:42:56.508Z,1032.20
2019-02-26T10:44:00.760Z,1032.20
2019-02-26T10:45:05.093Z,1032.19
2019-02-26T10:46:09.333Z,1032.18
2019-02-26T10:47:13.692Z,1032.14
2019-02-26T10:48:21.551Z,1032.13
2019-02-26T10:49:22.196Z,1032.15
2019-02-26T10:50:31.388Z,1032.19
2019-02-26T10:51:30.752Z,1032.23
2019-02-26T10:52:35.031Z,1032.25
2019-02-26T10:53:39.345Z,1032.28
2019-02-26T10:54:46.481Z,1032.31
2019-02-26T10:55:47.839Z,1032.31
2019-02-26T10:56:52.103Z,1032.29
2019-02-26T10:57:58.607Z,1032.27
2019-02-26T10:59:03.559Z,1032.21
2019-02-26T11:00:07.895Z,1032.21
2019-02-26T11:01:09.236Z,1032.20
2019-02-26T11:02:14.695Z,1032.20
2019-02-26T11:03:20.085Z,1032.16
2019-02-26T11:04:21.865Z,1032.16
2019-02-26T11:05:26.776Z,1032.19
2019-02-26T11:06:33.125Z,1032.18
2019-02-26T11:07:37.518Z,1032.17
2019-02-26T11:08:38.960Z,1032.14
2019-02-26T11:09:44.844Z,1032.11
2019-02-26T11:10:49.671Z,1032.12
2019-02-26T11:11:51.810Z,1032.13
2019-02-26T11:12:59.075Z,1032.16
2019-02-26T11:14:00.451Z,1032.18
2019-02-26T11:15:06.741Z,1032.17
2019-02-26T11:16:08.955Z,1032.17
2019-02-26T11:17:13.255Z,1032.15
2019-02-26T11:18:18.697Z,1032.17
2019-02-26T11:19:21.826Z,1032.19
2019-02-26T11:20:30.007Z,1032.20
2019-02-26T11:21:30.491Z,1032.21
2019-02-26T11:22:34.687Z,1032.22
2019-02-26T11:23:41.455Z,1032.23
2019-02-26T11:24:43.229Z,1032.24
2019-02-26T11:25:47.641Z,1032.30
2019-02-26T11:26:51.842Z,1032.32
2019-02-26T11:27:56.211Z,1032.32
2019-02-26T11:29:00.463Z,1032.28
2019-02-26T11:30:05.075Z,1032.26
2019-02-26T11:31:10.978Z,1032.26
2019-02-26T11:32:15.535Z,1032.23
2019-02-26T11:33:17.616Z,1032.21
2019-02-26T11:34:21.831Z,1032.17
2019-02-26T11:35:27.438Z,1032.21
2019-02-26T11:36:32.589Z,1032.21
2019-02-26T11:37:34.701Z,1032.17
2019-02-26T11:38:40.204Z,1032.15
2019-02-26T11:39:43.384Z,1032.20
2019-02-26T11:40:47.559Z,1032.27
2019-02-26T11:41:53.722Z,1032.22
2019-02-26T11:42:56.165Z,1032.20
2019-02-26T11:44:00.421Z,1032.18
2019-02-26T11:45:06.719Z,1032.19
2019-02-26T11:46:09.001Z,1032.16
2019-02-26T11:47:14.394Z,1032.16
2019-02-26T11:48:17.829Z,1032.17
2019-02-26T11:49:21.949Z,1032.20
2019-02-26T11:50:28.018Z,1032.15
2019-02-26T11:51:36.791Z,1032.11
2019-02-26T11:52:36.423Z,1032.09
2019-02-26T11:53:38.913Z,1032.07
2019-02-26T11:54:44.674Z,1032.03
2019-02-26T11:55:49.365Z,1032.04
2019-02-26T11:56:52.509Z,1032.07
2019-02-26T11:57:56.015Z,1032.07
2019-02-26T11:59:00.308Z,1032.06
2019-02-26T12:00:06.746Z,1032.07
2019-02-26T12:01:08.848Z,1032.05
2019-02-26T12:02:13.120Z,1032.07
2019-02-26T12:03:17.445Z,1032.03
2019-02-26T12:04:21.748Z,1032.03
2019-02-26T12:05:32.850Z,1032.03
2019-02-26T12:06:30.243Z,1032.02
2019-02-26T12:07:34.926Z,1032.01
2019-02-26T12:08:40.595Z,1031.96
2019-02-26T12:09:43.382Z,1031.94
2019-02-26T12:10:47.588Z,1031.90
2019-02-26T12:11:51.837Z,1031.85
2019-02-26T12:12:56.823Z,1031.83
2019-02-26T12:14:00.497Z,1031.84
2019-02-26T12:15:06.651Z,1031.86
2019-02-26T12:16:09.068Z,1031.85
2019-02-26T12:17:13.309Z,1031.87
2019-02-26T12:18:19.385Z,1031.85
2019-02-26T12:19:23.125Z,1031.82
2019-02-26T12:20:26.271Z,1031.79
2019-02-26T12:21:32.291Z,1031.77
2019-02-26T12:22:34.624Z,1031.77
2019-02-26T12:23:39.711Z,1031.77
2019-02-26T12:24:43.575Z,1031.76
2019-02-26T12:25:49.739Z,1031.73
2019-02-26T12:26:52.500Z,1031.73
2019-02-26T12:27:56.201Z,1031.74
2019-02-26T12:29:02.150Z,1031.73
2019-02-26T12:30:04.785Z,1031.72
2019-02-26T12:31:10.708Z,1031.68
2019-02-26T12:32:13.341Z,1031.66
2019-02-26T12:33:17.606Z,1031.65
2019-02-26T12:34:23.618Z,1031.60
2019-02-26T12:35:26.155Z,1031.55
2019-02-26T12:36:32.646Z,1031.53
2019-02-26T12:37:34.816Z,1031.52
2019-02-26T12:38:39.011Z,1031.51
2019-02-26T12:39:44.385Z,1031.48
2019-02-26T12:40:49.962Z,1031.48
2019-02-26T12:41:51.950Z,1031.50
2019-02-26T12:42:56.269Z,1031.48
2019-02-26T12:44:02.050Z,1031.47
2019-02-26T12:45:09.314Z,1031.46
2019-02-26T12:46:09.293Z,1031.46
2019-02-26T12:47:15.450Z,1031.44
2019-02-26T12:48:21.974Z,1031.40
2019-02-26T12:49:22.567Z,1031.39
2019-02-26T12:50:29.561Z,1031.32
2019-02-26T12:51:31.811Z,1031.29
2019-02-26T12:52:35.048Z,1031.21
2019-02-26T12:53:40.584Z,1031.15
2019-02-26T12:54:43.622Z,1031.08
2019-02-26T12:55:47.930Z,1031.01
2019-02-26T12:56:54.769Z,1030.99